Time;durP1;ratioP1;P1;durP2;ratioP2;P2;SDS_P1;SDS_P2;PMS_P1;PMS_P2;Temp;Humidity;BMP_temperature;BMP_pressure;BME280_temperature;BME280_humidity;BME280_pressure;Samples;Min_cycle;Max_cycle;Signal;HPM_P1;HPM_P2
2022/06/05 00:02:19;;;;;;;9.23;5.03;;;;;;;18.62;54.24;101623.41;4901314;29;20044;-77
2022/06/05 00:05:02;;;;;;;8.38;4.60;;;;;;;18.58;54.02;101613.78;4900383;29;20166;-77
2022/06/05 00:07:34;;;;;;;8.00;4.88;;;;;;;18.52;54.87;101608.66;4904673;29;20433;-78
2022/06/05 00:10:16;;;;;;;9.05;5.18;;;;;;;18.50;55.08;101611.44;4896814;29;20461;-80
2022/06/05 00:12:52;;;;;;;10.38;5.40;;;;;;;18.47;54.68;101612.44;4916999;29;20115;-78
2022/06/05 00:15:18;;;;;;;11.23;5.28;;;;;;;18.47;55.34;101601.72;4917015;29;20457;-77
2022/06/05 00:17:43;;;;;;;14.52;5.25;;;;;;;18.45;54.92;101587.47;4916947;29;20132;-77
2022/06/05 00:20:11;;;;;;;9.23;4.47;;;;;;;18.47;55.54;101582.03;4899870;29;20044;-77
2022/06/05 00:22:39;;;;;;;9.60;4.82;;;;;;;18.42;55.61;101587.63;4916619;29;20481;-79
2022/06/05 00:25:07;;;;;;;7.30;4.90;;;;;;;18.42;55.48;101600.13;4900009;29;20454;-78
2022/06/05 00:27:49;;;;;;;8.57;5.30;;;;;;;18.41;55.25;101588.53;4900734;29;20039;-79
2022/06/05 00:30:33;;;;;;;10.90;5.60;;;;;;;18.41;55.25;101579.63;4917904;29;20048;-77
2022/06/05 00:33:25;;;;;;;14.18;5.20;;;;;;;18.40;54.93;101580.59;4917078;29;20142;-78
2022/06/05 00:35:56;;;;;;;8.38;5.53;;;;;;;18.34;56.13;101580.81;4923474;29;20554;-81
2022/06/05 00:38:48;;;;;;;;;;;;;;;18.44;54.40;101576.81;4917193;29;20040;-78
2022/06/05 00:41:42;;;;;;;8.93;5.40;;;;;;;18.33;55.32;101571.91;4905805;29;20363;-78
2022/06/05 00:44:14;;;;;;;9.73;5.20;;;;;;;18.26;55.88;101560.56;4927016;29;20052;-79
2022/06/05 00:46:42;;;;;;;9.65;5.88;;;;;;;18.22;55.92;101558.09;4907321;29;20044;-78
2022/06/05 00:49:10;;;;;;;8.60;5.63;;;;;;;18.20;56.44;101559.94;4921386;29;20043;-79
2022/06/05 00:51:36;;;;;;;9.43;5.68;;;;;;;18.18;56.72;101561.84;4915257;29;20511;-77
2022/06/05 00:54:02;;;;;;;7.07;5.15;;;;;;;18.12;56.71;101549.56;4928803;29;20138;-78
2022/06/05 00:56:28;;;;;;;11.98;5.85;;;;;;;18.07;56.86;101548.88;4918207;29;20035;-78
2022/06/05 00:58:53;;;;;;;7.93;5.25;;;;;;;18.03;57.00;101558.00;4924672;29;20051;-78
2022/06/05 01:01:20;;;;;;;13.05;5.07;;;;;;;18.00;57.10;101556.31;4919313;29;20102;-77
2022/06/05 01:03:46;;;;;;;8.48;5.43;;;;;;;17.96;57.13;101554.69;4909079;29;20059;-78
2022/06/05 01:06:13;;;;;;;9.70;5.82;;;;;;;17.91;57.28;101562.06;4934297;29;20062;-78
2022/06/05 01:08:39;;;;;;;13.00;5.72;;;;;;;17.89;57.23;101555.88;4910101;29;20097;-78
2022/06/05 01:11:20;;;;;;;12.02;5.68;;;;;;;17.87;57.57;101551.53;4897082;29;20203;-79
2022/06/05 01:14:02;;;;;;;9.50;5.50;;;;;;;17.86;57.13;101544.44;4903982;29;20052;-78
2022/06/05 01:16:58;;;;;;;9.73;5.47;;;;;;;17.87;56.68;101539.00;4899989;29;20122;-78
2022/06/05 01:19:29;;;;;;;8.85;5.38;;;;;;;17.83;57.63;101540.06;4934136;29;20062;-78
2022/06/05 01:22:28;;;;;;;10.05;5.40;;;;;;;17.83;57.80;101543.63;4913714;29;20096;-78
2022/06/05 01:25:02;;;;;;;10.68;6.22;;;;;;;17.82;57.65;101541.84;4929559;29;20051;-78
2022/06/05 01:27:33;;;;;;;9.18;5.75;;;;;;;17.82;57.42;101541.00;4927659;29;20464;-77
2022/06/05 01:30:11;;;;;;;9.10;5.13;;;;;;;17.83;57.28;101542.75;4902495;29;20049;-78
2022/06/05 01:32:48;;;;;;;7.85;5.38;;;;;;;17.78;57.73;101537.53;4923660;29;20055;-78
2022/06/05 01:35:21;;;;;;;10.10;5.65;;;;;;;17.78;57.89;101529.50;4932923;29;20055;-78
2022/06/05 01:38:06;;;;;;;9.02;5.20;;;;;;;17.79;57.12;101535.72;4923122;29;20054;-78
2022/06/05 01:40:37;;;;;;;7.43;5.63;;;;;;;17.78;57.21;101550.94;4904156;29;20075;-77
2022/06/05 01:43:08;;;;;;;8.68;5.80;;;;;;;17.77;56.27;101577.78;4908495;29;20079;-77
2022/06/05 01:45:37;;;;;;;10.18;5.32;;;;;;;17.73;57.20;101579.72;4916533;29;20495;-77
2022/06/05 01:48:05;;;;;;;7.78;5.43;;;;;;;17.73;56.05;101582.41;4914258;29;20044;-77
2022/06/05 01:50:53;;;;;;;11.93;5.57;;;;;;;17.82;56.65;101610.66;4920079;29;20040;-77
2022/06/05 01:53:26;;;;;;;10.57;5.82;;;;;;;17.77;57.48;101631.34;4904042;29;20078;-76
2022/06/05 01:55:58;;;;;;;9.23;5.32;;;;;;;17.76;57.85;101617.09;4931283;29;20048;-77
2022/06/05 01:58:32;;;;;;;10.25;5.85;;;;;;;17.77;57.39;101573.28;4934444;29;20330;-77
2022/06/05 02:01:03;;;;;;;9.50;5.93;;;;;;;17.77;57.13;101542.94;4918319;29;20048;-77
2022/06/05 02:03:40;;;;;;;11.07;5.97;;;;;;;17.75;57.02;101539.47;4898081;29;20457;-77
2022/06/05 02:06:11;;;;;;;10.93;6.25;;;;;;;17.75;57.78;101566.25;4917938;29;20052;-77
2022/06/05 02:08:59;;;;;;;9.98;5.57;;;;;;;17.80;56.87;101570.53;4907928;29;20044;-77
2022/06/05 02:11:30;;;;;;;9.48;5.35;;;;;;;17.79;57.11;101543.78;4919314;29;20096;-77
2022/06/05 02:14:01;;;;;;;9.63;5.47;;;;;;;17.78;57.00;101540.22;4923584;29;20079;-77
2022/06/05 02:16:28;;;;;;;9.07;5.25;;;;;;;17.79;56.37;101525.00;4915082;29;20449;-77
2022/06/05 02:18:54;;;;;;;11.57;5.47;;;;;;;17.79;56.70;101509.81;4934519;29;20384;-77
2022/06/05 02:21:20;;;;;;;8.65;5.72;;;;;;;17.78;56.80;101505.41;4931622;29;20055;-78
2022/06/05 02:23:46;;;;;;;7.85;5.65;;;;;;;17.76;56.71;101501.03;4913632;29;20047;-77
2022/06/05 02:26:11;;;;;;;9.77;5.40;;;;;;;17.71;57.03;101493.19;4928320;29;20063;-77
2022/06/05 02:28:38;;;;;;;8.93;6.13;;;;;;;17.70;57.11;101488.75;4915087;29;20108;-77
2022/06/05 02:31:25;;;;;;;7.80;5.25;;;;;;;17.69;56.58;101481.66;4926579;29;20054;-77
2022/06/05 02:34:13;;;;;;;9.07;5.70;;;;;;;17.68;56.59;101479.94;4901491;29;20139;-77
2022/06/05 02:36:51;;;;;;;11.73;5.68;;;;;;;17.67;57.08;101478.16;4929889;29;20087;-77
2022/06/05 02:39:43;;;;;;;10.77;5.10;;;;;;;17.66;57.27;101480.94;4933676;29;20043;-77
2022/06/05 02:42:33;;;;;;;11.80;5.93;;;;;;;17.64;57.26;101467.59;4933371;29;20040;-77
2022/06/05 02:45:13;;;;;;;9.35;5.90;;;;;;;17.62;56.38;101464.97;4917949;29;20063;-77
2022/06/05 02:47:46;;;;;;;10.80;5.72;;;;;;;17.60;57.02;101457.94;4901778;29;20484;-77
2022/06/05 02:50:18;;;;;;;8.45;5.55;;;;;;;17.56;57.23;101448.28;4916493;29;20047;-77
2022/06/05 02:52:44;;;;;;;10.23;5.93;;;;;;;17.53;56.78;101449.28;4919881;29;20054;-77
2022/06/05 02:55:13;;;;;;;14.90;6.10;;;;;;;17.49;57.63;101439.63;4916373;29;20139;-77
2022/06/05 02:57:39;;;;;;;8.75;6.03;;;;;;;17.43;58.02;101431.84;4899639;29;20140;-77
2022/06/05 03:00:11;;;;;;;8.40;6.07;;;;;;;17.38;57.69;101418.66;4897024;29;20148;-77
2022/06/05 03:05:21;;;;;;;13.00;5.95;;;;;;;17.36;57.60;101407.16;4922462;29;20059;-77
2022/06/05 03:07:46;;;;;;;12.25;6.32;;;;;;;17.31;58.26;101398.44;4897510;29;20055;-77
2022/06/05 03:10:13;;;;;;;13.40;6.13;;;;;;;17.31;57.88;101398.44;4912649;29;20048;-77
2022/06/05 03:12:38;;;;;;;11.93;5.68;;;;;;;17.27;58.69;101391.44;4892379;29;20092;-77
2022/06/05 03:15:06;;;;;;;9.45;5.65;;;;;;;17.22;58.88;101390.78;4897286;29;20116;-78
2022/06/05 03:17:32;;;;;;;12.00;6.13;;;;;;;17.16;58.73;101388.31;4912843;29;20112;-78
2022/06/05 03:19:58;;;;;;;9.05;5.97;;;;;;;17.16;58.92;101391.91;4864251;29;20057;-77
2022/06/05 03:22:25;;;;;;;15.02;7.05;;;;;;;17.12;59.30;101382.25;4904401;29;20092;-77
2022/06/05 03:24:51;;;;;;;10.45;6.40;;;;;;;17.11;59.59;101385.88;4900071;29;20424;-78
2022/06/05 03:27:17;;;;;;;12.35;7.18;;;;;;;17.07;59.24;101386.91;4924258;29;20055;-77
2022/06/05 03:29:42;;;;;;;12.05;7.15;;;;;;;16.98;59.87;101371.22;4910192;29;20476;-77
2022/06/05 03:32:08;;;;;;;10.82;6.82;;;;;;;17.00;60.42;101379.19;4896980;29;20051;-77
2022/06/05 03:34:34;;;;;;;9.55;6.60;;;;;;;16.97;60.72;101370.34;4878321;29;20044;-78
2022/06/05 03:36:59;;;;;;;10.20;6.63;;;;;;;16.96;61.04;101368.63;4913980;29;20142;-77
2022/06/05 03:39:25;;;;;;;11.77;6.95;;;;;;;16.95;60.46;101358.84;4907121;29;20047;-78
2022/06/05 03:41:50;;;;;;;9.70;7.32;;;;;;;16.92;60.62;101363.47;4915672;29;20161;-77
2022/06/05 03:44:16;;;;;;;13.57;6.70;;;;;;;16.85;60.64;101368.16;4922076;29;20050;-78
2022/06/05 03:46:41;;;;;;;12.63;7.38;;;;;;;16.84;60.66;101376.25;4913814;29;20130;-77
2022/06/05 03:49:08;;;;;;;13.75;7.30;;;;;;;16.80;61.00;101377.31;4883660;29;20071;-77
2022/06/05 03:51:34;;;;;;;8.55;6.68;;;;;;;16.78;60.83;101382.72;4922388;29;20428;-79
2022/06/05 03:54:00;;;;;;;12.50;7.18;;;;;;;16.75;60.92;101381.00;4931470;29;20083;-77
2022/06/05 03:56:27;;;;;;;11.23;6.82;;;;;;;16.71;60.67;101403.44;4913647;29;20107;-77
2022/06/05 03:58:54;;;;;;;11.38;7.55;;;;;;;16.72;61.33;101407.00;4926419;29;20052;-78
2022/06/05 04:01:22;;;;;;;10.32;6.97;;;;;;;16.70;60.94;101409.72;4927027;29;20131;-77
2022/06/05 04:03:48;;;;;;;13.23;7.43;;;;;;;16.69;61.04;101408.00;4912353;29;20043;-77
2022/06/05 04:06:16;;;;;;;14.73;7.43;;;;;;;16.70;60.89;101406.19;4893280;29;20048;-77
2022/06/05 04:08:41;;;;;;;11.15;7.63;;;;;;;16.69;61.11;101402.66;4914209;29;20051;-77
2022/06/05 04:11:09;;;;;;;18.92;7.45;;;;;;;16.69;61.40;101408.00;4912609;29;20055;-78
2022/06/05 04:13:35;;;;;;;8.80;6.47;;;;;;;16.69;60.95;101394.63;4907602;29;20043;-77
2022/06/05 04:16:01;;;;;;;10.30;7.03;;;;;;;16.70;60.87;101396.34;4927581;29;20075;-77
2022/06/05 04:18:26;;;;;;;11.07;6.97;;;;;;;16.68;61.42;101397.34;4917040;29;20215;-77
2022/06/05 04:20:52;;;;;;;11.88;6.95;;;;;;;16.66;61.48;101401.88;4928781;29;20087;-78
2022/06/05 04:23:17;;;;;;;11.60;7.13;;;;;;;16.64;61.40;101383.22;4918442;29;20079;-77
2022/06/05 04:25:44;;;;;;;16.80;7.47;;;;;;;16.63;59.97;101384.16;4925996;29;20111;-77
2022/06/05 04:28:10;;;;;;;13.88;7.15;;;;;;;16.60;61.84;101373.56;4888731;29;20045;-78
2022/06/05 04:30:37;;;;;;;11.45;7.25;;;;;;;16.60;61.62;101378.91;4927865;29;20504;-77
2022/06/05 04:33:03;;;;;;;13.93;7.10;;;;;;;16.57;61.74;101373.69;4930595;29;20474;-77
2022/06/05 04:35:28;;;;;;;11.27;6.97;;;;;;;16.56;62.14;101374.59;4918451;29;20151;-77
2022/06/05 04:37:54;;;;;;;11.85;7.30;;;;;;;16.54;62.15;101376.47;4918328;29;20054;-77
2022/06/05 04:40:19;;;;;;;11.95;6.93;;;;;;;16.56;62.27;101380.81;4903881;29;20052;-77
2022/06/05 04:42:45;;;;;;;12.57;7.00;;;;;;;16.56;62.22;101379.97;4908638;29;20115;-77
2022/06/05 04:45:11;;;;;;;14.40;7.45;;;;;;;16.56;62.42;101385.31;4901738;29;20488;-77
2022/06/05 04:47:36;;;;;;;9.68;7.10;;;;;;;16.56;61.34;101378.16;4933784;29;20396;-77
2022/06/05 04:50:02;;;;;;;8.65;6.90;;;;;;;16.57;61.66;101376.38;4925177;29;20425;-77
2022/06/05 04:52:28;;;;;;;14.02;7.65;;;;;;;16.55;62.63;101371.06;4915268;29;20409;-77
2022/06/05 04:54:53;;;;;;;12.65;7.50;;;;;;;16.54;62.35;101376.47;4902312;29;20044;-78
2022/06/05 04:57:19;;;;;;;15.38;7.32;;;;;;;16.51;61.82;101373.91;4920675;29;20504;-77
2022/06/05 04:59:44;;;;;;;10.27;7.47;;;;;;;16.46;62.65;101370.56;4917735;29;20036;-77
2022/06/05 05:02:09;;;;;;;15.82;7.47;;;;;;;16.47;62.16;101366.97;4929663;29;20040;-77
2022/06/05 05:04:35;;;;;;;13.60;7.78;;;;;;;16.48;62.43;101377.56;4916557;29;20051;-78
2022/06/05 05:07:00;;;;;;;13.40;7.47;;;;;;;16.49;62.65;101376.66;4935173;29;20134;-77
2022/06/05 05:09:26;;;;;;;15.07;7.80;;;;;;;16.48;63.08;101368.69;4935378;29;20086;-77
2022/06/05 05:11:51;;;;;;;13.90;8.70;;;;;;;16.45;62.79;101375.03;4907923;29;20542;-77
2022/06/05 05:14:17;;;;;;;13.30;7.15;;;;;;;16.47;62.60;101377.66;4902486;29;20051;-77
2022/06/05 05:16:42;;;;;;;13.45;7.45;;;;;;;16.47;63.10;101372.31;4935309;29;20051;-77
2022/06/05 05:19:08;;;;;;;13.40;7.72;;;;;;;16.49;63.11;101375.78;4935635;29;20074;-77
2022/06/05 05:21:34;;;;;;;13.95;7.75;;;;;;;16.50;62.81;101378.41;4935029;29;20059;-80
2022/06/05 05:23:59;;;;;;;13.35;7.05;;;;;;;16.50;62.84;101378.41;4935476;29;20216;-77
2022/06/05 05:26:27;;;;;;;10.00;7.13;;;;;;;16.52;63.56;101378.34;4902603;29;20044;-77
2022/06/05 05:28:54;;;;;;;12.38;7.78;;;;;;;16.53;62.45;101380.94;4898224;29;20279;-77
2022/06/05 05:31:23;;;;;;;11.05;7.10;;;;;;;16.53;63.07;101372.94;4915534;29;20048;-78
2022/06/05 05:33:49;;;;;;;12.65;7.82;;;;;;;16.52;63.02;101381.03;4917831;29;20127;-77
2022/06/05 05:36:18;;;;;;;10.52;7.45;;;;;;;16.52;62.89;101381.03;4921350;29;20074;-78
2022/06/05 05:42:04;;;;;;;10.40;7.35;;;;;;;16.50;63.23;101378.41;4915800;29;20532;-78
2022/06/05 05:44:14;;;;;;;17.75;7.45;;;;;;;16.52;63.10;101375.69;4915493;29;20397;-77
2022/06/05 05:46:41;;;;;;;10.88;7.13;;;;;;;16.52;63.12;101373.00;4926021;29;20047;-77
2022/06/05 05:49:08;;;;;;;9.00;7.25;;;;;;;16.54;62.51;101371.13;4921471;29;20384;-77
2022/06/05 05:51:35;;;;;;;13.15;8.32;;;;;;;16.59;63.14;101377.16;4924906;29;20109;-77
2022/06/05 05:54:01;;;;;;;10.10;6.97;;;;;;;16.65;63.55;101371.59;4933595;29;20424;-77
2022/06/05 05:56:27;;;;;;;10.32;7.13;;;;;;;16.66;63.14;101375.13;4922562;29;20039;-77
2022/06/05 05:58:52;;;;;;;10.70;7.60;;;;;;;16.68;63.38;101366.13;4917616;29;20046;-77
2022/06/05 06:01:18;;;;;;;10.93;7.32;;;;;;;16.74;62.99;101365.00;4929382;29;20048;-78
2022/06/05 06:03:43;;;;;;;11.60;7.15;;;;;;;16.81;63.00;101360.31;4915637;29;20072;-77
2022/06/05 06:06:09;;;;;;;19.60;7.85;;;;;;;16.84;62.75;101358.41;4898512;29;20088;-77
2022/06/05 06:08:34;;;;;;;12.32;7.50;;;;;;;16.88;62.77;101361.81;4906552;29;20043;-77
2022/06/05 06:11:00;;;;;;;8.50;6.72;;;;;;;16.92;61.60;101350.94;4902824;29;20048;-78
2022/06/05 06:13:26;;;;;;;16.48;7.53;;;;;;;16.96;62.64;101346.31;4898082;29;20052;-77
2022/06/05 06:15:51;;;;;;;13.18;6.65;;;;;;;16.98;62.57;101347.13;4898423;29;20122;-77
2022/06/05 06:18:17;;;;;;;10.52;7.03;;;;;;;17.06;61.26;101349.50;4916055;29;20502;-77
2022/06/05 06:20:45;;;;;;;11.13;7.25;;;;;;;17.12;62.43;101342.09;4913391;29;20434;-78
2022/06/05 06:23:11;;;;;;;11.40;7.25;;;;;;;17.20;62.52;101339.09;4915784;29;20400;-77
2022/06/05 06:25:37;;;;;;;11.57;6.72;;;;;;;17.26;61.91;101336.19;4916903;29;20043;-78
2022/06/05 06:28:04;;;;;;;8.70;6.40;;;;;;;17.34;61.38;101330.50;4932601;29;20043;-76
2022/06/05 06:30:31;;;;;;;13.25;7.55;;;;;;;17.37;61.36;101317.84;4897899;29;20056;-78
2022/06/05 06:32:57;;;;;;;13.23;6.95;;;;;;;17.44;61.93;101321.16;4915003;29;20048;-77
2022/06/05 06:35:23;;;;;;;12.40;7.50;;;;;;;17.53;61.33;101319.88;4868478;29;20099;-78
2022/06/05 06:37:49;;;;;;;8.35;6.93;;;;;;;17.59;61.68;101319.63;4901092;29;20052;-77
2022/06/05 06:40:14;;;;;;;9.50;6.70;;;;;;;17.71;61.13;101320.91;4916444;29;20059;-77
2022/06/05 06:42:40;;;;;;;15.25;7.07;;;;;;;17.80;61.58;101318.72;4920111;29;20060;-77
2022/06/05 06:45:06;;;;;;;9.32;6.80;;;;;;;17.88;61.11;101310.34;4899900;29;20387;-77
2022/06/05 06:47:31;;;;;;;12.30;6.97;;;;;;;17.96;60.03;101302.81;4931622;29;20063;-78
2022/06/05 06:49:57;;;;;;;12.07;7.07;;;;;;;18.04;60.61;101299.78;4910640;29;20048;-77
2022/06/05 06:52:22;;;;;;;9.65;6.97;;;;;;;18.13;59.41;101290.47;4926288;29;20071;-78
2022/06/05 06:54:50;;;;;;;12.50;7.18;;;;;;;18.23;60.08;101283.72;4893612;29;20065;-78
2022/06/05 06:57:16;;;;;;;10.10;6.53;;;;;;;18.29;58.84;101282.56;4933491;29;20138;-79
2022/06/05 06:59:41;;;;;;;8.23;6.43;;;;;;;18.38;58.90;101276.78;4900725;29;20063;-78
2022/06/05 07:02:07;;;;;;;10.18;6.93;;;;;;;18.43;59.13;101275.59;4927521;29;20060;-77
2022/06/05 07:04:32;;;;;;;13.80;6.75;;;;;;;18.46;58.70;101275.44;4927913;29;20142;-78
2022/06/05 07:06:58;;;;;;;10.82;6.85;;;;;;;18.53;59.15;101267.13;4913085;29;20044;-78
2022/06/05 07:09:24;;;;;;;10.35;6.57;;;;;;;18.59;58.99;101259.63;4883643;29;20131;-78
2022/06/05 07:11:50;;;;;;;12.70;7.00;;;;;;;18.65;59.11;101277.25;4905985;29;20056;-80
2022/06/05 07:14:16;;;;;;;9.82;6.85;;;;;;;18.72;59.00;101267.06;4915032;29;20055;-78
2022/06/05 07:16:42;;;;;;;12.48;6.88;;;;;;;18.81;58.78;101266.66;4900077;29;20044;-80
2022/06/05 07:19:08;;;;;;;10.55;6.68;;;;;;;18.93;59.08;101255.31;4914703;29;20464;-80
2022/06/05 07:21:34;;;;;;;10.90;6.88;;;;;;;19.09;58.88;101247.38;4927698;29;20056;-79
2022/06/05 07:24:01;;;;;;;12.40;6.72;;;;;;;19.25;58.06;101247.44;4923993;29;20064;-77
2022/06/05 07:26:31;;;;;;;11.98;7.25;;;;;;;19.30;57.59;101248.94;4900773;29;20115;-77
2022/06/05 07:28:58;;;;;;;11.80;7.00;;;;;;;19.32;57.36;101255.09;4905740;29;20102;-77
2022/06/05 07:31:26;;;;;;;8.95;6.60;;;;;;;19.44;57.41;101250.91;4901922;29;20044;-78
2022/06/05 07:33:52;;;;;;;11.73;7.10;;;;;;;19.53;57.53;101249.53;4913050;29;20048;-78
2022/06/05 07:36:20;;;;;;;9.52;6.25;;;;;;;19.66;57.45;101244.41;4877504;29;20103;-77
2022/06/05 07:38:47;;;;;;;9.10;6.82;;;;;;;19.74;56.63;101243.06;4929338;29;20522;-77
2022/06/05 07:41:29;;;;;;;10.52;6.97;;;;;;;19.86;56.41;101240.69;4925684;29;20036;-79
2022/06/05 07:43:55;;;;;;;12.68;6.50;;;;;;;19.94;56.11;101233.91;4886872;29;20098;-80
2022/06/05 07:46:22;;;;;;;8.68;5.90;;;;;;;20.07;57.27;101226.03;4904900;29;20055;-80
2022/06/05 07:48:47;;;;;;;9.95;7.05;;;;;;;20.21;56.42;101229.81;4916364;29;20039;-77
2022/06/05 07:56:45;;;;;;;12.63;6.72;;;;;;;20.48;55.67;101222.00;4894064;29;20059;-78
2022/06/05 07:59:11;;;;;;;8.55;7.20;;;;;;;20.52;55.47;101213.63;4928997;29;20043;-78
2022/06/05 08:01:36;;;;;;;9.07;6.38;;;;;;;20.61;55.36;101207.75;4929453;29;20048;-78
2022/06/05 08:04:05;;;;;;;12.93;7.35;;;;;;;20.71;55.90;101212.63;4913801;29;20110;-77
2022/06/05 08:06:34;;;;;;;7.82;6.32;;;;;;;20.81;54.66;101203.91;4906612;29;20051;-79
2022/06/05 08:09:04;;;;;;;9.40;5.97;;;;;;;20.93;54.82;101204.13;4924705;29;20044;-76
2022/06/05 08:11:31;;;;;;;9.82;6.47;;;;;;;21.05;54.52;101201.56;4906244;29;20034;-77
2022/06/05 08:13:57;;;;;;;12.60;7.05;;;;;;;21.15;55.60;101193.81;4901091;29;20138;-77
2022/06/05 08:16:23;;;;;;;8.70;6.55;;;;;;;21.18;54.44;101190.94;4934092;29;20187;-78
2022/06/05 08:18:51;;;;;;;10.30;6.13;;;;;;;21.31;54.94;101184.78;4936701;29;20056;-77
2022/06/05 08:21:18;;;;;;;12.38;7.05;;;;;;;21.37;54.24;101182.59;4936129;29;20131;-77
2022/06/05 08:23:44;;;;;;;11.07;6.57;;;;;;;21.43;54.01;101193.00;4928760;29;20098;-77
2022/06/05 08:26:09;;;;;;;12.05;7.13;;;;;;;21.53;54.19;101187.91;4915985;29;20551;-77
2022/06/05 08:28:36;;;;;;;10.88;6.85;;;;;;;21.81;53.86;101187.06;4881601;29;20041;-76
2022/06/05 08:31:02;;;;;;;13.25;6.75;;;;;;;21.95;53.16;101182.63;4921420;29;20047;-76
2022/06/05 08:33:27;;;;;;;8.35;7.15;;;;;;;22.09;52.89;101180.75;4932110;29;20076;-78
2022/06/05 08:35:53;;;;;;;12.45;7.82;;;;;;;22.17;52.47;101184.78;4926551;29;20079;-78
2022/06/05 08:41:27;;;;;;;8.80;7.13;;;;;;;22.38;52.65;101175.34;4910843;29;20039;-77
2022/06/05 08:44:16;;;;;;;12.43;8.00;;;;;;;22.49;52.37;101177.31;4928237;29;20172;-78
2022/06/05 08:47:18;;;;;;;8.88;7.05;;;;;;;22.51;51.84;101175.38;4910117;29;20043;-78
2022/06/05 08:50:25;;;;;;;9.45;6.68;;;;;;;22.59;51.87;101182.97;4908640;29;20044;-79
2022/06/05 08:53:13;;;;;;;10.90;6.75;;;;;;;22.72;52.05;101184.75;4894001;29;20056;-79
2022/06/05 08:55:46;;;;;;;8.48;6.78;;;;;;;22.79;52.42;101179.78;4917636;29;20075;-79
2022/06/05 08:58:32;;;;;;;10.40;6.35;;;;;;;22.88;52.06;101183.69;4928643;29;20178;-78
2022/06/05 09:01:08;;;;;;;10.00;6.60;;;;;;;23.00;51.44;101182.00;4915585;29;20155;-79
2022/06/05 09:03:47;;;;;;;8.35;6.53;;;;;;;23.03;51.43;101187.22;4873699;29;20460;-78
2022/06/05 09:06:23;;;;;;;9.05;6.65;;;;;;;22.98;51.46;101184.81;4930073;29;20131;-78
2022/06/05 09:08:54;;;;;;;10.68;6.50;;;;;;;22.90;50.93;101190.72;4907751;29;20123;-78
2022/06/05 09:11:55;;;;;;;9.10;6.88;;;;;;;22.94;51.48;101181.41;4889301;29;20537;-78
2022/06/05 09:14:38;;;;;;;12.45;6.53;;;;;;;22.81;50.84;101193.19;4905778;29;20056;-77
2022/06/05 09:17:14;;;;;;;8.85;6.47;;;;;;;22.63;51.96;101200.69;4914973;29;20055;-78
2022/06/05 09:19:40;;;;;;;8.50;6.63;;;;;;;22.62;52.47;101188.16;4929869;29;20047;-78
2022/06/05 09:22:25;;;;;;;7.75;6.55;;;;;;;22.64;52.43;101200.56;4899283;29;20100;-78
2022/06/05 09:25:03;;;;;;;10.27;6.60;;;;;;;22.58;51.83;101187.50;4886180;29;20450;-78
2022/06/05 09:27:50;;;;;;;7.90;6.95;;;;;;;22.48;52.49;101187.25;4906022;29;20513;-78
2022/06/05 09:30:20;;;;;;;7.97;6.25;;;;;;;22.42;52.76;101181.38;4933136;29;20043;-78
2022/06/05 09:32:52;;;;;;;8.18;6.95;;;;;;;22.41;52.88;101174.25;4906486;29;20123;-78
2022/06/05 09:35:28;;;;;;;9.73;6.85;;;;;;;22.34;52.41;101179.19;4920463;29;20134;-78
2022/06/05 09:38:06;;;;;;;7.80;6.85;;;;;;;22.23;52.74;101177.22;4917799;29;20052;-78
2022/06/05 09:40:36;;;;;;;8.23;6.82;;;;;;;22.26;53.71;101178.84;4921378;29;20139;-78
2022/06/05 09:43:08;;;;;;;9.77;7.15;;;;;;;22.28;53.80;101169.69;4925682;29;20116;-78
2022/06/05 09:45:51;;;;;;;10.20;7.45;;;;;;;22.21;54.32;101167.47;4913752;29;20040;-78
2022/06/05 09:48:25;;;;;;;11.68;7.20;;;;;;;22.23;54.33;101165.53;4898853;29;20499;-78
2022/06/05 09:50:51;;;;;;;14.40;7.45;;;;;;;22.11;54.15;101170.75;4915471;29;20051;-78
2022/06/05 09:53:27;;;;;;;9.82;6.85;;;;;;;22.05;54.42;101160.34;4913091;29;20407;-78
2022/06/05 09:56:21;;;;;;;9.13;6.85;;;;;;;22.02;53.78;101162.38;4934773;29;20048;-78
2022/06/05 09:59:13;;;;;;;10.13;7.60;;;;;;;21.98;54.68;101155.44;4934899;29;20055;-78
2022/06/05 10:01:54;;;;;;;11.85;7.30;;;;;;;21.93;54.09;101147.66;4903029;29;20432;-78
2022/06/05 10:04:21;;;;;;;10.40;6.68;;;;;;;21.81;54.84;101149.31;4931160;29;20051;-78
2022/06/05 10:07:06;;;;;;;12.60;7.38;;;;;;;21.74;55.33;101145.28;4934436;29;20398;-78
2022/06/05 10:09:34;;;;;;;10.93;7.88;;;;;;;21.64;55.79;101136.91;4918146;29;20056;-78
2022/06/05 10:12:24;;;;;;;10.55;7.35;;;;;;;21.66;55.53;101135.00;4905514;29;20392;-78
2022/06/05 10:14:59;;;;;;;13.57;7.60;;;;;;;21.66;56.70;101135.00;4914829;29;20063;-78
2022/06/05 10:17:30;;;;;;;11.10;7.45;;;;;;;21.62;56.66;101136.16;4898403;29;20466;-78
2022/06/05 10:20:15;;;;;;;9.63;7.70;;;;;;;21.66;56.27;101135.00;4913642;29;20064;-77
2022/06/05 10:23:08;;;;;;;12.32;7.55;;;;;;;21.65;55.91;101138.63;4913859;29;20123;-78
2022/06/05 10:26:18;;;;;;;11.63;7.07;;;;;;;21.72;56.09;101125.66;4915340;29;20130;-78
2022/06/05 10:28:45;;;;;;;14.90;7.50;;;;;;;21.78;56.04;101124.38;4905162;29;20079;-79
2022/06/05 10:31:22;;;;;;;14.55;7.55;;;;;;;21.79;56.41;101126.13;4891784;29;20052;-78
2022/06/05 10:33:54;;;;;;;10.43;7.68;;;;;;;21.87;57.15;101121.09;4902689;29;20044;-78
2022/06/05 10:36:59;;;;;;;9.07;6.97;;;;;;;21.99;56.23;101122.13;4918294;29;20130;-78
2022/06/05 10:39:40;;;;;;;12.10;7.40;;;;;;;22.00;58.20;101121.16;4909563;29;20039;-78
2022/06/05 10:42:15;;;;;;;10.38;8.10;;;;;;;21.98;58.96;101125.78;4932458;29;20146;-78
2022/06/05 10:44:52;;;;;;;10.30;8.13;;;;;;;22.04;61.07;101126.25;4920569;29;20052;-78
2022/06/05 10:47:55;;;;;;;11.48;8.15;;;;;;;22.08;58.64;101127.78;4930844;29;20467;-78
2022/06/05 10:50:57;;;;;;;16.23;9.20;;;;;;;22.09;59.13;101120.56;4906292;29;20048;-78
2022/06/05 10:53:38;;;;;;;12.10;8.40;;;;;;;22.06;61.49;101116.25;4902446;29;20051;-79
2022/06/05 10:56:29;;;;;;;11.55;8.63;;;;;;;22.03;59.72;101124.53;4916592;29;20511;-80
2022/06/05 10:59:05;;;;;;;13.75;9.27;;;;;;;21.87;60.80;101118.41;4916439;29;20040;-80
2022/06/05 11:01:41;;;;;;;13.70;9.63;;;;;;;21.78;62.19;101121.69;4902145;29;20054;-80
2022/06/05 11:04:06;;;;;;;15.95;9.63;;;;;;;21.71;62.28;101109.56;4927962;29;20497;-81
2022/06/05 11:06:41;;;;;;;16.10;9.45;;;;;;;21.70;64.10;101119.47;4879006;29;20044;-79
2022/06/05 11:09:31;;;;;;;15.70;10.05;;;;;;;21.61;62.79;101110.19;4920215;29;20143;-79
2022/06/05 11:15:02;;;;;;;18.90;9.23;;;;;;;21.36;63.99;101104.56;4914323;29;20051;-79
2022/06/05 11:17:46;;;;;;;13.95;9.63;;;;;;;21.24;65.08;101101.69;4914615;29;20048;-78
2022/06/05 11:20:17;;;;;;;15.75;9.80;;;;;;;21.17;66.35;101094.94;4900731;29;20048;-79
2022/06/05 11:22:55;;;;;;;11.80;9.32;;;;;;;21.13;64.74;101092.53;4913222;29;20048;-79
2022/06/05 11:25:25;;;;;;;13.00;9.85;;;;;;;21.05;66.00;101096.56;4900168;29;20158;-80
2022/06/05 11:28:28;;;;;;;12.20;9.50;;;;;;;21.05;65.72;101090.31;4897513;29;20087;-80
2022/06/05 11:31:23;;;;;;;12.50;9.20;;;;;;;20.99;66.96;101090.69;4904623;29;20086;-80
2022/06/05 11:34:16;;;;;;;16.83;10.25;;;;;;;20.90;68.36;101089.44;4921028;29;20087;-78
2022/06/05 11:37:04;;;;;;;15.15;11.07;;;;;;;20.88;69.62;101087.81;4929197;29;20055;-78
2022/06/05 11:39:39;;;;;;;17.67;12.23;;;;;;;20.83;70.61;101090.78;4882534;29;20067;-79
2022/06/05 11:42:23;;;;;;;17.35;11.25;;;;;;;20.79;69.41;101092.75;4913294;29;20048;-80
2022/06/05 11:44:57;;;;;;;14.88;11.18;;;;;;;20.67;71.38;101084.56;4922003;29;20055;-80
2022/06/05 11:47:50;;;;;;;22.10;11.25;;;;;;;20.60;70.13;101084.09;4894986;29;20054;-80
2022/06/05 11:50:30;;;;;;;14.32;11.38;;;;;;;20.50;72.29;101086.44;4909458;29;20076;-81
2022/06/05 11:53:09;;;;;;;14.38;11.43;;;;;;;20.43;72.22;101092.28;4900611;29;20170;-81
2022/06/05 11:55:41;;;;;;;17.80;11.98;;;;;;;20.33;74.60;101086.56;4881870;29;20044;-82
2022/06/05 11:58:20;;;;;;;17.52;12.73;;;;;;;20.29;75.73;101091.25;4933619;29;20130;-82
2022/06/05 12:00:55;;;;;;;22.08;13.27;;;;;;;20.25;76.08;101088.81;4915499;29;20036;-83